createdAt,value
2022-09-20T00:01:33.457Z,56.83
2022-09-20T00:06:35.143Z,56.31
2022-09-20T00:11:37.229Z,56.54
2022-09-20T00:16:40.863Z,56.57
2022-09-20T00:21:42.446Z,56.52
2022-09-20T00:26:43.941Z,57.07
2022-09-20T00:31:45.645Z,56.64
2022-09-20T00:36:47.268Z,56.47
2022-09-20T00:41:48.832Z,56.89
2022-09-20T00:46:50.610Z,56.67
2022-09-20T00:51:56.942Z,56.71
2022-09-20T00:56:58.523Z,56.77
2022-09-20T01:02:22.952Z,56.67
2022-09-20T01:07:25.555Z,56.87
2022-09-20T01:12:30.997Z,56.80
2022-09-20T01:17:36.369Z,56.77
2022-09-20T01:22:58.063Z,56.85
2022-09-20T01:27:59.892Z,56.92
2022-09-20T01:33:31.001Z,56.91
2022-09-20T01:38:42.618Z,57.02
2022-09-20T01:43:51.926Z,56.97
2022-09-20T01:49:04.761Z,56.77
2022-09-20T01:54:12.635Z,57.06
2022-09-20T01:59:27.279Z,57.14
2022-09-20T02:04:44.375Z,56.93
2022-09-20T02:10:05.853Z,57.10
2022-09-20T02:15:45.226Z,56.94
2022-09-20T02:20:56.907Z,56.90
2022-09-20T02:26:36.183Z,57.14
2022-09-20T02:31:49.699Z,57.04
2022-09-20T02:37:00.695Z,56.99
2022-09-20T02:42:18.004Z,57.12
2022-09-20T02:47:35.805Z,57.17
2022-09-20T02:52:46.530Z,57.05
2022-09-20T02:58:06.979Z,57.34
2022-09-20T03:03:24.352Z,57.21
2022-09-20T03:08:31.993Z,57.17
2022-09-20T03:14:05.378Z,57.10
2022-09-20T03:19:28.464Z,57.16
2022-09-20T03:24:51.871Z,57.16
2022-09-20T03:30:24.191Z,57.35
2022-09-20T03:35:44.123Z,57.51
2022-09-20T03:40:55.646Z,57.41
2022-09-20T03:46:04.203Z,57.44
2022-09-20T03:51:14.050Z,57.55
2022-09-20T03:56:42.933Z,57.75
2022-09-20T04:02:09.872Z,57.76
2022-09-20T04:07:30.061Z,58.07
2022-09-20T04:12:56.796Z,58.08
2022-09-20T04:18:12.615Z,57.84
2022-09-20T04:23:25.566Z,58.18
2022-09-20T04:28:36.102Z,57.85
2022-09-20T04:33:45.290Z,58.13
2022-09-20T04:38:54.441Z,58.47
2022-09-20T04:44:27.905Z,58.09
2022-09-20T04:50:00.248Z,57.82
2022-09-20T04:55:48.328Z,58.21
2022-09-20T05:01:17.650Z,58.14
2022-09-20T05:06:56.901Z,58.13
2022-09-20T05:12:04.413Z,57.96
2022-09-20T05:17:38.154Z,57.87
2022-09-20T05:23:02.633Z,58.16
2022-09-20T05:28:10.290Z,58.07
2022-09-20T05:33:35.222Z,58.02
2022-09-20T05:38:58.029Z,57.97
2022-09-20T05:44:09.027Z,58.03
2022-09-20T05:49:38.737Z,58.12
2022-09-20T05:54:58.206Z,58.31
2022-09-20T06:00:19.698Z,58.00
2022-09-20T06:05:33.779Z,58.07
2022-09-20T06:10:47.402Z,58.02
2022-09-20T06:16:01.428Z,58.19
2022-09-20T06:21:41.835Z,58.03
2022-09-20T06:26:45.107Z,57.94
2022-09-20T06:31:46.602Z,58.03
2022-09-20T06:37:13.290Z,58.19
2022-09-20T06:42:14.835Z,57.88
2022-09-20T06:47:16.374Z,58.05
2022-09-20T06:52:20.238Z,57.85
2022-09-20T06:57:37.796Z,57.61
2022-09-20T07:02:39.569Z,57.37
2022-09-20T07:07:41.387Z,57.74
2022-09-20T07:12:43.101Z,57.25
2022-09-20T07:17:45.479Z,56.84
2022-09-20T07:22:47.842Z,56.86
2022-09-20T07:27:51.047Z,56.77
2022-09-20T07:32:52.561Z,56.72
2022-09-20T07:37:58.323Z,56.67
2022-09-20T07:42:59.818Z,56.35
2022-09-20T07:48:05.203Z,56.35
2022-09-20T07:53:06.713Z,56.30
2022-09-20T07:58:08.208Z,56.54
2022-09-20T08:03:09.919Z,56.14
2022-09-20T08:08:11.942Z,56.29
2022-09-20T08:18:36.488Z,56.00
2022-09-20T08:23:40.391Z,55.90
2022-09-20T08:28:42.360Z,55.77
2022-09-20T08:33:44.055Z,55.50
2022-09-20T08:44:26.349Z,54.98
2022-09-20T08:49:29.667Z,54.87
2022-09-20T08:54:33.310Z,54.50
2022-09-20T08:59:35.055Z,54.28
2022-09-20T09:04:36.782Z,54.04
2022-09-20T09:09:41.374Z,54.01
2022-09-20T09:14:48.706Z,54.24
2022-09-20T09:19:58.568Z,54.01
2022-09-20T09:25:09.429Z,53.79
2022-09-20T09:30:40.837Z,53.56
2022-09-20T09:35:42.984Z,53.28
2022-09-20T09:40:53.640Z,53.18
2022-09-20T09:46:17.123Z,53.09
2022-09-20T09:51:20.607Z,52.82
2022-09-20T09:56:34.235Z,52.20
2022-09-20T10:01:41.033Z,52.20
2022-09-20T10:07:02.754Z,52.17
2022-09-20T10:12:39.726Z,51.81
2022-09-20T10:18:08.774Z,51.96
2022-09-20T10:23:58.682Z,51.84
2022-09-20T10:29:08.382Z,52.18
2022-09-20T10:34:48.548Z,51.92
2022-09-20T10:40:06.495Z,51.43
2022-09-20T10:45:36.298Z,51.05
2022-09-20T10:51:01.385Z,50.34
2022-09-20T10:56:33.491Z,50.31
2022-09-20T11:01:51.651Z,49.84
2022-09-20T11:07:28.807Z,49.87
2022-09-20T11:12:42.460Z,49.51
2022-09-20T11:17:56.850Z,49.38
2022-09-20T11:23:05.056Z,48.70
2022-09-20T11:28:14.040Z,48.56
2022-09-20T11:33:28.685Z,48.67
2022-09-20T11:38:41.354Z,48.86
2022-09-20T11:43:45.316Z,48.83
2022-09-20T11:49:00.745Z,49.15
2022-09-20T11:54:23.983Z,49.25
2022-09-20T11:59:40.328Z,49.41
2022-09-20T12:04:45.489Z,49.39
2022-09-20T12:09:53.466Z,49.33
2022-09-20T12:14:57.294Z,49.62
2022-09-20T12:19:58.867Z,49.50
2022-09-20T12:25:36.735Z,49.98
2022-09-20T12:30:38.348Z,49.21
2022-09-20T12:35:39.862Z,48.35
2022-09-20T12:41:03.478Z,48.05
2022-09-20T12:46:11.315Z,47.99
2022-09-20T12:51:43.306Z,47.58
2022-09-20T12:56:46.657Z,47.18
2022-09-20T13:01:48.459Z,46.88
2022-09-20T13:07:10.863Z,47.67
2022-09-20T13:12:12.675Z,48.41
2022-09-20T13:17:26.773Z,48.77
2022-09-20T13:22:43.625Z,49.20
2022-09-20T13:28:07.218Z,49.46
2022-09-20T13:33:36.508Z,49.38
2022-09-20T13:38:38.323Z,48.57
2022-09-20T13:43:43.474Z,48.43
2022-09-20T13:48:52.800Z,48.25
2022-09-20T13:54:25.656Z,47.96
2022-09-20T13:59:34.041Z,47.60
2022-09-20T14:04:38.515Z,47.99
2022-09-20T14:09:40.390Z,47.61
2022-09-20T14:14:42.124Z,47.12
2022-09-20T14:19:46.402Z,47.21
2022-09-20T14:25:04.119Z,47.40
2022-09-20T14:30:07.385Z,46.00
2022-09-20T14:35:18.716Z,45.31
2022-09-20T14:40:45.519Z,45.01
2022-09-20T14:45:54.206Z,44.89
2022-09-20T14:51:16.338Z,45.54
2022-09-20T14:56:34.425Z,45.85
2022-09-20T15:01:38.211Z,45.75
2022-09-20T15:06:40.022Z,45.91
2022-09-20T15:11:41.542Z,45.75
2022-09-20T15:16:43.098Z,44.91
2022-09-20T15:21:44.837Z,44.58
2022-09-20T15:26:46.447Z,44.42
2022-09-20T15:31:48.556Z,44.09
2022-09-20T15:36:50.726Z,44.03
2022-09-20T15:41:53.307Z,44.33
2022-09-20T15:46:55.041Z,44.36
2022-09-20T15:51:57.185Z,44.34
2022-09-20T15:56:58.670Z,44.89
2022-09-20T16:02:00.631Z,44.88
2022-09-20T16:07:02.738Z,45.22
2022-09-20T16:12:04.673Z,45.09
2022-09-20T16:17:06.142Z,44.94
2022-09-20T16:22:08.210Z,45.24
2022-09-20T16:27:09.930Z,45.33
2022-09-20T16:32:11.458Z,45.55
2022-09-20T16:37:17.024Z,45.76
2022-09-20T16:42:18.666Z,45.81
2022-09-20T16:47:23.098Z,45.79
2022-09-20T16:52:26.551Z,45.97
2022-09-20T16:57:28.822Z,45.83
2022-09-20T17:02:30.391Z,45.70
2022-09-20T17:07:32.562Z,45.52
2022-09-20T17:12:41.627Z,45.57
2022-09-20T17:17:43.160Z,45.71
2022-09-20T17:22:44.615Z,45.46
2022-09-20T17:27:48.225Z,45.35
2022-09-20T17:32:50.738Z,46.07
2022-09-20T17:37:52.215Z,45.68
2022-09-20T17:42:55.130Z,45.62
2022-09-20T17:47:57.512Z,45.74
2022-09-20T17:52:59.115Z,45.85
2022-09-20T17:58:01.119Z,45.97
2022-09-20T18:03:04.981Z,45.80
2022-09-20T18:08:06.927Z,45.98
2022-09-20T18:13:08.440Z,46.00
2022-09-20T18:18:10.045Z,45.87
2022-09-20T18:23:11.728Z,46.01
2022-09-20T18:28:14.079Z,46.23
2022-09-20T18:33:18.643Z,46.13
2022-09-20T18:38:21.640Z,46.01
2022-09-20T18:43:23.251Z,46.23
2022-09-20T18:48:26.816Z,46.29
2022-09-20T18:53:30.195Z,46.39
2022-09-20T18:58:31.830Z,46.59
2022-09-20T19:03:47.239Z,46.56
2022-09-20T19:09:02.063Z,46.76
2022-09-20T19:14:12.107Z,47.05
2022-09-20T19:19:37.018Z,46.96
2022-09-20T19:24:58.154Z,47.05
2022-09-20T19:29:59.980Z,47.16
2022-09-20T19:35:01.853Z,47.36
2022-09-20T19:40:20.997Z,47.39
2022-09-20T19:45:31.247Z,47.53
2022-09-20T19:50:45.285Z,47.91
2022-09-20T19:55:52.010Z,47.85
2022-09-20T20:00:53.898Z,48.12
2022-09-20T20:06:16.246Z,48.32
2022-09-20T20:11:28.292Z,48.37
2022-09-20T20:16:51.668Z,48.38
2022-09-20T20:22:08.201Z,48.61
2022-09-20T20:27:09.810Z,48.04
2022-09-20T20:32:12.036Z,48.55
2022-09-20T20:37:14.126Z,48.51
2022-09-20T20:42:15.919Z,48.70
2022-09-20T20:47:17.414Z,48.37
2022-09-20T20:52:19.283Z,48.95
2022-09-20T20:57:20.749Z,48.84
2022-09-20T21:02:22.275Z,49.06
2022-09-20T21:07:24.792Z,49.35
2022-09-20T21:12:26.639Z,48.97
2022-09-20T21:17:31.508Z,49.37
2022-09-20T21:22:35.569Z,49.11
2022-09-20T21:27:37.101Z,49.54
2022-09-20T21:32:38.755Z,49.56
2022-09-20T21:37:41.200Z,49.57
2022-09-20T21:42:42.653Z,49.53
2022-09-20T21:47:48.913Z,49.37
2022-09-20T21:52:50.577Z,49.52
2022-09-20T21:57:52.029Z,49.47
2022-09-20T22:02:58.865Z,49.32
2022-09-20T22:08:00.455Z,49.42
2022-09-20T22:13:01.918Z,49.82
2022-09-20T22:18:05.881Z,49.56
2022-09-20T22:23:07.345Z,50.08
2022-09-20T22:28:08.801Z,50.18
2022-09-20T22:33:10.247Z,50.72
2022-09-20T22:38:11.719Z,51.55
2022-09-20T22:43:13.175Z,51.27
2022-09-20T22:48:14.723Z,51.33
2022-09-20T22:53:16.170Z,51.23
2022-09-20T22:58:17.616Z,50.82
2022-09-20T23:03:19.120Z,50.77
2022-09-20T23:08:22.395Z,50.72
2022-09-20T23:13:24.089Z,50.80
2022-09-20T23:18:25.909Z,50.99
2022-09-20T23:23:29.119Z,50.76
2022-09-20T23:28:30.647Z,50.74
2022-09-20T23:33:32.266Z,50.40
2022-09-20T23:38:33.766Z,50.79
2022-09-20T23:43:36.280Z,50.85
2022-09-20T23:48:41.687Z,51.24
2022-09-20T23:53:43.518Z,51.29
2022-09-20T23:58:45.927Z,50.75
